createdAt,value
2023-01-18T00:01:19.159Z,98062.94
2023-01-18T00:04:21.949Z,98069.66
2023-01-18T00:07:24.633Z,98059.53
2023-01-18T00:10:27.523Z,98042.94
2023-01-18T00:13:30.276Z,98064.47
2023-01-18T00:16:34.647Z,98054.47
2023-01-18T00:19:37.317Z,98070.84
2023-01-18T00:22:40.019Z,98066.16
2023-01-18T00:25:42.662Z,98069.22
2023-01-18T00:28:46.118Z,98074.53
2023-01-18T00:31:50.238Z,98092.88
2023-01-18T00:34:52.859Z,98085.50
2023-01-18T00:40:58.496Z,98077.56
2023-01-18T00:44:02.045Z,98081.56
2023-01-18T00:47:06.087Z,98085.88
2023-01-18T00:50:10.556Z,98099.00
2023-01-18T00:53:13.476Z,98097.50
2023-01-18T00:56:18.286Z,98113.25
2023-01-18T00:59:20.950Z,98133.06
2023-01-18T01:02:25.112Z,98129.66
2023-01-18T01:05:46.650Z,98136.50
2023-01-18T01:08:50.437Z,98141.06
2023-01-18T01:12:12.416Z,98149.91
2023-01-18T01:15:33.301Z,98140.91
2023-01-18T01:18:55.938Z,98158.34
2023-01-18T01:22:17.290Z,98136.25
2023-01-18T01:25:38.348Z,98145.25
2023-01-18T01:28:43.538Z,98141.75
2023-01-18T01:31:46.244Z,98139.72
2023-01-18T01:34:53.008Z,98137.78
2023-01-18T01:37:55.766Z,98137.63
2023-01-18T01:41:04.518Z,98112.97
2023-01-18T01:44:42.697Z,98121.25
2023-01-18T01:47:47.836Z,98130.84
2023-01-18T01:50:52.056Z,98111.00
2023-01-18T01:54:00.144Z,98127.53
2023-01-18T01:57:07.117Z,98111.09
2023-01-18T02:00:12.782Z,98112.13
2023-01-18T02:03:21.003Z,98101.97
2023-01-18T02:06:32.332Z,98113.81
2023-01-18T02:09:34.950Z,98108.47
2023-01-18T02:12:40.752Z,98100.78
2023-01-18T02:15:58.027Z,98109.75
2023-01-18T02:19:16.901Z,98115.84
2023-01-18T02:22:37.895Z,98127.44
2023-01-18T02:26:06.920Z,98149.03
2023-01-18T02:29:17.444Z,98154.72
2023-01-18T02:32:29.399Z,98149.66
2023-01-18T02:35:47.491Z,98151.84
2023-01-18T02:38:54.649Z,98146.50
2023-01-18T02:42:23.830Z,98140.34
2023-01-18T02:45:59.535Z,98128.47
2023-01-18T02:49:06.577Z,98121.94
2023-01-18T02:52:39.061Z,98126.38
2023-01-18T02:55:47.852Z,98108.41
2023-01-18T02:58:57.267Z,98095.38
2023-01-18T03:02:03.643Z,98098.75
2023-01-18T03:05:10.598Z,98102.81
2023-01-18T03:08:19.736Z,98101.19
2023-01-18T03:11:30.883Z,98094.75
2023-01-18T03:14:45.812Z,98088.06
2023-01-18T03:17:52.834Z,98080.09
2023-01-18T03:20:57.205Z,98079.69
2023-01-18T03:24:02.686Z,98081.81
2023-01-18T03:27:23.776Z,98081.56
2023-01-18T03:30:48.269Z,98083.09
2023-01-18T03:33:55.193Z,98100.72
2023-01-18T03:37:01.840Z,98105.09
2023-01-18T03:40:08.922Z,98099.34
2023-01-18T03:43:14.978Z,98092.22
2023-01-18T03:46:21.781Z,98083.66
2023-01-18T03:49:27.561Z,98078.75
2023-01-18T03:52:37.736Z,98066.66
2023-01-18T03:55:43.612Z,98063.19
2023-01-18T03:58:49.303Z,98053.28
2023-01-18T04:01:52.041Z,98063.09
2023-01-18T04:05:03.561Z,98059.28
2023-01-18T04:08:06.825Z,98056.16
2023-01-18T04:11:09.515Z,98051.78
2023-01-18T04:14:12.111Z,98047.44
2023-01-18T04:17:14.819Z,98054.19
2023-01-18T04:20:19.351Z,98045.91
2023-01-18T04:23:23.996Z,98036.50
2023-01-18T04:26:26.793Z,98019.34
2023-01-18T04:29:29.743Z,98026.69
2023-01-18T04:32:32.758Z,98018.41
2023-01-18T04:35:36.787Z,98023.22
2023-01-18T04:38:39.894Z,98007.06
2023-01-18T04:41:42.776Z,97999.09
2023-01-18T04:44:45.426Z,98006.97
2023-01-18T04:47:48.055Z,98010.94
2023-01-18T04:50:52.367Z,98007.81
2023-01-18T04:53:55.076Z,98004.44
2023-01-18T04:56:57.699Z,98008.16
2023-01-18T05:00:02.252Z,98002.66
2023-01-18T05:03:04.919Z,97996.41
2023-01-18T05:06:10.949Z,97993.94
2023-01-18T05:09:13.783Z,97994.44
2023-01-18T05:12:16.398Z,98001.28
2023-01-18T05:15:19.214Z,97983.53
2023-01-18T05:18:21.963Z,97989.88
2023-01-18T05:21:26.156Z,97983.28
2023-01-18T05:24:30.011Z,97988.00
2023-01-18T05:27:33.499Z,97979.97
2023-01-18T05:30:40.110Z,97973.72
2023-01-18T05:33:42.820Z,97976.91
2023-01-18T05:36:47.177Z,97964.97
2023-01-18T05:39:49.927Z,97965.91
2023-01-18T05:42:53.765Z,97955.06
2023-01-18T05:45:56.625Z,97961.09
2023-01-18T05:48:59.610Z,97974.72
2023-01-18T05:52:04.122Z,97973.28
2023-01-18T05:55:07.296Z,97975.44
2023-01-18T05:58:10.285Z,97972.13
2023-01-18T06:01:13.808Z,97967.59
2023-01-18T06:04:16.801Z,97951.59
2023-01-18T06:07:20.965Z,97964.06
2023-01-18T06:10:23.738Z,97981.50
2023-01-18T06:13:29.373Z,97993.53
2023-01-18T06:16:32.035Z,98022.53
2023-01-18T06:19:34.912Z,98082.53
2023-01-18T06:22:38.989Z,98121.13
2023-01-18T06:25:41.691Z,98207.97
2023-01-18T06:28:44.362Z,98245.59
2023-01-18T06:31:47.328Z,98256.38
2023-01-18T06:34:50.099Z,98246.22
2023-01-18T06:37:56.449Z,98220.72
2023-01-18T06:41:03.721Z,98201.41
2023-01-18T06:44:06.744Z,98249.56
2023-01-18T06:47:09.850Z,98247.19
2023-01-18T06:50:12.597Z,98240.81
2023-01-18T06:53:16.811Z,98252.88
2023-01-18T06:56:19.527Z,98256.47
2023-01-18T06:59:24.422Z,98260.78
2023-01-18T07:02:28.267Z,98262.72
2023-01-18T07:05:31.292Z,98255.03
2023-01-18T07:08:35.757Z,98260.78
2023-01-18T07:11:42.717Z,98312.22
2023-01-18T07:14:45.651Z,98322.09
2023-01-18T07:17:50.780Z,98322.50
2023-01-18T07:20:58.480Z,98328.16
2023-01-18T07:24:06.609Z,98298.22
2023-01-18T07:27:09.366Z,98353.25
2023-01-18T07:30:12.821Z,98347.88
2023-01-18T07:33:15.493Z,98291.31
2023-01-18T07:36:18.269Z,98377.94
2023-01-18T07:39:22.539Z,98376.91
2023-01-18T07:42:25.521Z,98395.78
2023-01-18T07:45:28.429Z,98418.97
2023-01-18T07:48:32.541Z,98432.06
2023-01-18T07:51:35.584Z,98428.97
2023-01-18T07:54:42.398Z,98412.09
2023-01-18T07:57:45.679Z,98397.38
2023-01-18T08:00:48.575Z,98395.75
2023-01-18T08:03:51.643Z,98400.34
2023-01-18T08:06:57.606Z,98424.22
2023-01-18T08:10:01.843Z,98470.44
2023-01-18T08:13:06.238Z,98497.94
2023-01-18T08:16:11.477Z,98477.56
2023-01-18T08:19:14.283Z,98442.94
2023-01-18T08:22:19.351Z,98426.75
2023-01-18T08:25:23.886Z,98461.53
2023-01-18T08:28:26.623Z,98484.50
2023-01-18T08:31:29.847Z,98490.66
2023-01-18T08:34:32.538Z,98497.47
2023-01-18T08:37:35.315Z,98489.84
2023-01-18T08:40:40.705Z,98509.94
2023-01-18T08:43:43.668Z,98505.59
2023-01-18T08:46:46.504Z,98553.88
2023-01-18T08:49:49.219Z,98552.66
2023-01-18T08:52:55.195Z,98586.06
2023-01-18T08:56:04.163Z,98592.94
2023-01-18T08:59:08.697Z,98585.41
2023-01-18T09:02:11.608Z,98587.38
2023-01-18T09:05:14.629Z,98594.06
2023-01-18T09:08:19.572Z,98605.03
2023-01-18T09:11:23.868Z,98601.03
2023-01-18T09:14:26.649Z,98599.59
2023-01-18T09:17:29.745Z,98616.41
2023-01-18T09:20:35.488Z,98624.91
2023-01-18T09:23:41.580Z,98631.19
2023-01-18T09:26:47.335Z,98643.97
2023-01-18T09:29:52.419Z,98636.06
2023-01-18T09:33:01.161Z,98664.53
2023-01-18T09:36:07.644Z,98660.84
2023-01-18T09:39:10.748Z,98653.78
2023-01-18T09:42:40.592Z,98667.84
2023-01-18T09:45:47.461Z,98665.94
2023-01-18T09:48:54.735Z,98667.28
2023-01-18T09:52:13.048Z,98690.56
2023-01-18T09:55:22.721Z,98693.78
2023-01-18T09:58:44.559Z,98700.16
2023-01-18T10:01:48.877Z,98703.56
2023-01-18T10:04:55.461Z,98714.13
2023-01-18T10:08:02.846Z,98721.22
2023-01-18T10:11:10.512Z,98732.44
2023-01-18T10:14:21.104Z,98758.72
2023-01-18T10:17:32.455Z,98771.19
2023-01-18T10:20:42.443Z,98768.75
2023-01-18T10:23:51.642Z,98783.84
2023-01-18T10:27:10.945Z,98792.50
2023-01-18T10:30:32.419Z,98802.81
2023-01-18T10:33:42.191Z,98814.94
2023-01-18T10:36:48.639Z,98818.13
2023-01-18T10:39:57.602Z,98815.47
2023-01-18T10:43:02.501Z,98844.19
2023-01-18T10:46:14.126Z,98845.03
2023-01-18T10:49:38.855Z,98844.09
2023-01-18T10:52:42.633Z,98852.72
2023-01-18T10:55:53.287Z,98866.31
2023-01-18T10:58:58.407Z,98870.22
2023-01-18T11:02:03.591Z,98874.81
2023-01-18T11:05:20.829Z,98868.84
2023-01-18T11:08:25.306Z,98878.44
2023-01-18T11:11:49.002Z,98881.00
2023-01-18T11:14:51.897Z,98882.53
2023-01-18T11:18:20.414Z,98891.50
2023-01-18T11:21:24.662Z,98897.28
2023-01-18T11:24:32.205Z,98894.56
2023-01-18T11:27:36.339Z,98896.41
2023-01-18T11:30:51.200Z,98917.56
2023-01-18T11:33:57.921Z,98914.09
2023-01-18T11:37:02.525Z,98915.31
2023-01-18T11:40:28.471Z,98909.63
2023-01-18T11:43:36.010Z,98923.31
2023-01-18T11:46:43.909Z,98932.72
2023-01-18T11:49:59.224Z,98923.75
2023-01-18T11:53:12.864Z,98947.28
2023-01-18T11:56:24.601Z,98941.94
2023-01-18T11:59:31.011Z,98944.53
2023-01-18T12:02:57.829Z,98948.19
2023-01-18T12:06:10.906Z,98951.97
2023-01-18T12:09:26.536Z,98956.53
2023-01-18T12:12:48.160Z,98966.72
2023-01-18T12:16:01.052Z,98968.44
2023-01-18T12:19:28.169Z,98963.78
2023-01-18T12:23:09.240Z,98973.50
2023-01-18T12:26:25.623Z,98974.47
2023-01-18T12:29:39.597Z,98990.94
2023-01-18T12:33:10.396Z,99011.19
2023-01-18T12:36:29.890Z,99020.91
2023-01-18T12:39:54.146Z,99006.06
2023-01-18T12:43:06.246Z,99008.63
2023-01-18T12:46:11.516Z,99012.25
2023-01-18T12:49:19.401Z,99010.88
2023-01-18T12:52:23.580Z,99007.81
2023-01-18T12:55:31.746Z,99009.69
2023-01-18T12:58:35.788Z,99020.03
2023-01-18T13:01:42.678Z,99014.25
2023-01-18T13:04:54.098Z,99016.09
2023-01-18T13:08:04.604Z,99020.69
2023-01-18T13:11:13.654Z,99029.44
2023-01-18T13:14:25.523Z,99042.78
2023-01-18T13:17:32.958Z,99046.66
2023-01-18T13:20:46.313Z,99040.38
2023-01-18T13:24:01.376Z,99042.47
2023-01-18T13:27:11.633Z,99048.72
2023-01-18T13:30:19.396Z,99051.34
2023-01-18T13:33:24.735Z,99056.78
2023-01-18T13:36:27.690Z,99046.72
2023-01-18T13:39:32.876Z,99042.00
2023-01-18T13:42:39.177Z,99032.28
2023-01-18T13:46:02.699Z,99030.00
2023-01-18T13:49:37.805Z,99025.28
2023-01-18T13:52:43.440Z,99039.38
2023-01-18T13:55:47.986Z,99047.13
2023-01-18T13:59:03.654Z,99049.38
2023-01-18T14:02:20.055Z,99063.72
2023-01-18T14:05:26.064Z,99071.06
2023-01-18T14:08:32.799Z,99081.91
2023-01-18T14:11:38.237Z,99073.91
2023-01-18T14:14:56.026Z,99076.88
2023-01-18T14:17:59.467Z,99067.41
2023-01-18T14:21:20.091Z,99065.63
2023-01-18T14:24:36.357Z,99067.81
2023-01-18T14:27:43.238Z,99090.88
2023-01-18T14:30:48.661Z,99105.16
2023-01-18T14:33:51.596Z,99130.31
2023-01-18T14:36:55.216Z,99142.13
2023-01-18T14:40:15.694Z,99156.22
2023-01-18T14:43:24.938Z,99147.78
2023-01-18T14:46:29.742Z,99136.94
2023-01-18T14:49:35.332Z,99150.69
2023-01-18T14:52:39.995Z,99159.13
2023-01-18T14:55:43.219Z,99164.81
2023-01-18T14:58:53.263Z,99163.72
2023-01-18T15:01:58.941Z,99165.38
2023-01-18T15:05:12.644Z,99154.44
2023-01-18T15:08:16.578Z,99152.28
2023-01-18T15:11:23.221Z,99147.25
2023-01-18T15:14:29.271Z,99147.50
2023-01-18T15:17:36.255Z,99152.78
2023-01-18T15:20:49.581Z,99138.66
2023-01-18T15:23:55.517Z,99142.44
2023-01-18T15:27:02.297Z,99140.28
2023-01-18T15:30:13.018Z,99131.81
2023-01-18T15:33:17.741Z,99142.34
2023-01-18T15:36:20.618Z,99150.13
2023-01-18T15:39:23.598Z,99138.94
2023-01-18T15:42:29.965Z,99144.38
2023-01-18T15:45:35.232Z,99135.53
2023-01-18T15:48:49.711Z,99136.25
2023-01-18T15:51:52.676Z,99133.91
2023-01-18T15:54:55.610Z,99137.75
2023-01-18T15:58:01.637Z,99142.50
2023-01-18T16:01:07.893Z,99147.16
2023-01-18T16:04:22.838Z,99152.19
2023-01-18T16:07:37.188Z,99147.94
2023-01-18T16:10:47.970Z,99142.88
2023-01-18T16:13:57.322Z,99155.28
2023-01-18T16:17:04.699Z,99174.22
2023-01-18T16:20:16.647Z,99176.16
2023-01-18T16:23:21.366Z,99173.06
2023-01-18T16:26:30.451Z,99172.28
2023-01-18T16:29:40.210Z,99168.03
2023-01-18T16:32:43.494Z,99172.28
2023-01-18T16:35:49.376Z,99169.94
2023-01-18T16:38:52.368Z,99167.28
2023-01-18T16:41:57.654Z,99166.50
2023-01-18T16:45:00.335Z,99165.72
2023-01-18T16:48:03.833Z,99156.41
2023-01-18T16:51:17.140Z,99158.72
2023-01-18T16:54:38.880Z,99169.94
2023-01-18T16:57:42.225Z,99158.38
2023-01-18T17:00:51.808Z,99156.78
2023-01-18T17:03:54.863Z,99156.41
2023-01-18T17:06:59.120Z,99168.38
2023-01-18T17:10:02.071Z,99179.53
2023-01-18T17:13:05.134Z,99177.63
2023-01-18T17:16:16.096Z,99187.69
2023-01-18T17:19:20.746Z,99191.56
2023-01-18T17:22:25.193Z,99186.97
2023-01-18T17:25:27.890Z,99194.28
2023-01-18T17:28:30.747Z,99195.88
2023-01-18T17:31:35.389Z,99204.75
2023-01-18T17:34:39.913Z,99206.25
2023-01-18T17:37:43.985Z,99212.88
2023-01-18T17:40:47.117Z,99220.22
2023-01-18T17:43:50.315Z,99212.06
2023-01-18T17:46:53.088Z,99211.31
2023-01-18T17:49:56.658Z,99215.91
2023-01-18T17:53:01.416Z,99222.88
2023-01-18T17:56:07.113Z,99220.19
2023-01-18T17:59:10.414Z,99223.66
2023-01-18T18:02:14.748Z,99217.78
2023-01-18T18:05:17.811Z,99220.81
2023-01-18T18:08:22.318Z,99214.63
2023-01-18T18:11:25.251Z,99221.97
2023-01-18T18:14:28.985Z,99214.63
2023-01-18T18:17:32.952Z,99220.09
2023-01-18T18:20:38.106Z,99221.22
2023-01-18T18:23:42.104Z,99210.78
2023-01-18T18:26:45.133Z,99212.34
2023-01-18T18:29:48.168Z,99211.13
2023-01-18T18:32:50.970Z,99208.78
2023-01-18T18:35:54.081Z,99207.63
2023-01-18T18:39:02.355Z,99201.91
2023-01-18T18:42:05.227Z,99188.38
2023-01-18T18:45:09.530Z,99183.41
2023-01-18T18:48:13.174Z,99189.19
2023-01-18T18:51:16.168Z,99186.47
2023-01-18T18:54:20.701Z,99182.59
2023-01-18T18:57:23.568Z,99185.31
2023-01-18T19:00:27.457Z,99189.97
2023-01-18T19:03:30.694Z,99182.59
2023-01-18T19:06:33.784Z,99177.28
2023-01-18T19:09:38.153Z,99173.41
2023-01-18T19:12:40.998Z,99171.09
2023-01-18T19:15:45.907Z,99171.91
2023-01-18T19:18:49.161Z,99181.94
2023-01-18T19:21:52.290Z,99194.66
2023-01-18T19:24:57.722Z,99190.03
2023-01-18T19:28:00.726Z,99187.69
2023-01-18T19:31:05.579Z,99185.41
2023-01-18T19:34:09.615Z,99196.63
2023-01-18T19:37:13.226Z,99184.25
2023-01-18T19:40:17.792Z,99185.06
2023-01-18T19:43:20.645Z,99192.00
2023-01-18T19:46:23.599Z,99198.16
2023-01-18T19:49:26.780Z,99190.47
2023-01-18T19:52:29.966Z,99173.81
2023-01-18T19:55:36.445Z,99170.34
2023-01-18T19:58:41.304Z,99195.09
2023-01-18T20:01:48.333Z,99179.25
2023-01-18T20:04:52.463Z,99186.19
2023-01-18T20:07:55.921Z,99195.09
2023-01-18T20:11:05.342Z,99193.16
2023-01-18T20:14:08.075Z,99200.50
2023-01-18T20:17:11.896Z,99189.69
2023-01-18T20:20:24.157Z,99197.03
2023-01-18T20:23:34.486Z,99204.38
2023-01-18T20:26:40.969Z,99227.94
2023-01-18T20:29:45.083Z,99232.94
2023-01-18T20:32:47.786Z,99225.97
2023-01-18T20:35:52.352Z,99231.00
2023-01-18T20:38:55.270Z,99228.69
2023-01-18T20:41:59.634Z,99230.63
2023-01-18T20:45:02.313Z,99224.06
2023-01-18T20:48:06.312Z,99222.53
2023-01-18T20:51:09.226Z,99217.47
2023-01-18T20:54:12.072Z,99202.41
2023-01-18T20:57:18.119Z,99177.34
2023-01-18T21:00:21.948Z,99167.28
2023-01-18T21:03:24.692Z,99162.66
2023-01-18T21:06:27.781Z,99169.59
2023-01-18T21:09:30.378Z,99169.97
2023-01-18T21:12:34.379Z,99178.09
2023-01-18T21:15:38.082Z,99177.72
2023-01-18T21:18:40.971Z,99159.56
2023-01-18T21:21:44.658Z,99138.69
2023-01-18T21:24:47.447Z,99122.47
2023-01-18T21:27:51.528Z,99122.88
2023-01-18T21:30:55.764Z,99119.78
2023-01-18T21:33:58.355Z,99111.69
2023-01-18T21:37:00.943Z,99105.09
2023-01-18T21:40:04.675Z,99103.56
2023-01-18T21:43:34.964Z,99088.50
2023-01-18T21:46:37.742Z,99072.72
2023-01-18T21:50:16.697Z,99057.66
2023-01-18T21:53:38.632Z,99062.28
2023-01-18T21:56:42.134Z,99061.91
2023-01-18T21:59:46.628Z,99064.97
2023-01-18T22:02:49.666Z,99058.81
2023-01-18T22:05:52.437Z,99065.34
2023-01-18T22:08:55.193Z,99070.38
2023-01-18T22:11:58.554Z,99075.00
2023-01-18T22:15:03.042Z,99089.69
2023-01-18T22:18:06.118Z,99076.53
2023-01-18T22:21:08.893Z,99074.25
2023-01-18T22:24:12.127Z,99071.53
2023-01-18T22:27:14.861Z,99064.97
2023-01-18T22:30:19.254Z,99070.75
2023-01-18T22:33:22.372Z,99067.69
2023-01-18T22:36:25.368Z,99066.50
2023-01-18T22:39:28.045Z,99071.91
2023-01-18T22:42:31.539Z,99069.63
2023-01-18T22:45:35.505Z,99073.50
2023-01-18T22:48:38.303Z,99058.41
2023-01-18T22:51:41.082Z,99043.75
2023-01-18T22:54:43.842Z,99044.53
2023-01-18T22:57:46.611Z,99032.53
2023-01-18T23:00:50.829Z,99032.53
2023-01-18T23:03:56.147Z,99032.53
2023-01-18T23:07:00.902Z,99034.88
2023-01-18T23:10:03.908Z,99027.50
2023-01-18T23:13:06.557Z,99022.47
2023-01-18T23:16:32.808Z,99014.00
2023-01-18T23:19:36.314Z,99017.50
2023-01-18T23:22:39.169Z,99022.09
2023-01-18T23:25:41.844Z,99020.53
2023-01-18T23:28:44.997Z,99014.72
2023-01-18T23:31:49.217Z,98998.91
2023-01-18T23:34:52.024Z,99007.75
2023-01-18T23:37:54.767Z,98992.31
2023-01-18T23:41:16.255Z,99005.50
2023-01-18T23:44:37.841Z,99007.03
2023-01-18T23:48:01.028Z,99012.03
2023-01-18T23:51:23.703Z,99011.66
2023-01-18T23:54:26.408Z,99014.72
2023-01-18T23:57:30.121Z,99016.63
